createdAt,value
2018-07-30T00:01:58.572Z,55.57
2018-07-30T00:04:27.452Z,55.52
2018-07-30T00:06:56.354Z,55.20
2018-07-30T00:09:25.230Z,55.35
2018-07-30T00:11:54.388Z,55.61
2018-07-30T00:14:23.261Z,55.51
2018-07-30T00:16:52.246Z,55.29
2018-07-30T00:19:21.284Z,55.08
2018-07-30T00:21:50.160Z,55.57
2018-07-30T00:24:19.058Z,55.58
2018-07-30T00:26:47.918Z,55.81
2018-07-30T00:29:16.927Z,55.71
2018-07-30T00:31:45.800Z,56.22
2018-07-30T00:34:14.968Z,55.78
2018-07-30T00:36:43.832Z,56.46
2018-07-30T00:39:13.010Z,56.37
2018-07-30T00:41:42.086Z,56.11
2018-07-30T00:44:11.045Z,56.34
2018-07-30T00:46:40.154Z,56.18
2018-07-30T00:49:09.028Z,56.17
2018-07-30T00:51:38.013Z,56.89
2018-07-30T00:54:06.900Z,56.30
2018-07-30T00:56:35.764Z,56.20
2018-07-30T00:59:04.655Z,56.79
2018-07-30T01:01:33.620Z,56.87
2018-07-30T01:04:02.578Z,56.63
2018-07-30T01:06:31.595Z,56.82
2018-07-30T01:09:00.940Z,56.68
2018-07-30T01:11:29.817Z,56.94
2018-07-30T01:13:58.698Z,56.92
2018-07-30T01:16:27.566Z,57.07
2018-07-30T01:18:56.527Z,57.11
2018-07-30T01:21:25.630Z,57.03
2018-07-30T01:23:54.544Z,56.96
2018-07-30T01:26:27.599Z,57.19
2018-07-30T01:28:57.586Z,57.60
2018-07-30T01:31:26.490Z,58.10
2018-07-30T01:33:55.525Z,58.22
2018-07-30T01:36:24.518Z,58.22
2018-07-30T01:38:53.404Z,58.84
2018-07-30T01:41:22.276Z,58.68
2018-07-30T01:43:51.146Z,58.93
2018-07-30T01:46:20.081Z,59.17
2018-07-30T01:48:54.805Z,59.44
2018-07-30T01:51:29.463Z,59.80
2018-07-30T01:53:58.424Z,60.07
2018-07-30T01:56:27.300Z,60.19
2018-07-30T01:58:56.220Z,59.70
2018-07-30T02:01:25.106Z,60.69
2018-07-30T02:03:54.094Z,60.13
2018-07-30T02:06:24.005Z,60.06
2018-07-30T02:08:54.224Z,60.64
2018-07-30T02:11:23.103Z,60.72
2018-07-30T02:13:52.302Z,60.72
2018-07-30T02:16:21.408Z,61.05
2018-07-30T02:18:50.319Z,60.81
2018-07-30T02:21:19.251Z,60.71
2018-07-30T02:23:48.190Z,60.29
2018-07-30T02:26:17.083Z,60.65
2018-07-30T02:28:45.987Z,60.93
2018-07-30T02:31:14.904Z,60.74
2018-07-30T02:33:43.835Z,60.70
2018-07-30T02:36:12.746Z,61.62
2018-07-30T02:38:41.617Z,61.00
2018-07-30T02:41:10.553Z,60.72
2018-07-30T02:43:39.521Z,60.80
2018-07-30T02:46:08.428Z,61.43
2018-07-30T02:48:37.439Z,60.96
2018-07-30T02:51:06.409Z,60.88
2018-07-30T02:53:35.553Z,60.73
2018-07-30T02:56:04.435Z,61.59
2018-07-30T02:58:33.291Z,61.59
2018-07-30T03:01:02.165Z,61.44
2018-07-30T03:03:31.070Z,61.67
2018-07-30T03:05:59.944Z,62.18
2018-07-30T03:08:28.828Z,62.50
2018-07-30T03:10:57.700Z,62.42
2018-07-30T03:13:26.591Z,62.38
2018-07-30T03:15:55.517Z,62.75
2018-07-30T03:18:24.459Z,62.88
2018-07-30T03:20:53.379Z,62.40
2018-07-30T03:23:22.293Z,62.54
2018-07-30T03:25:51.204Z,62.75
2018-07-30T03:28:20.169Z,63.00
2018-07-30T03:30:49.070Z,62.52
2018-07-30T03:33:17.982Z,62.19
2018-07-30T03:35:47.054Z,62.38
2018-07-30T03:38:16.000Z,62.77
2018-07-30T03:40:44.875Z,62.77
2018-07-30T03:43:13.921Z,62.92
2018-07-30T03:45:42.819Z,63.22
2018-07-30T03:48:11.694Z,62.62
2018-07-30T03:50:47.179Z,62.45
2018-07-30T03:53:16.052Z,62.44
2018-07-30T03:55:45.030Z,61.89
2018-07-30T03:58:13.912Z,62.27
2018-07-30T04:00:42.838Z,61.88
2018-07-30T04:03:11.711Z,61.33
2018-07-30T04:05:40.752Z,62.01
2018-07-30T04:08:09.756Z,62.51
2018-07-30T04:10:38.678Z,62.61
2018-07-30T04:13:07.610Z,62.43
2018-07-30T04:15:36.534Z,62.62
2018-07-30T04:18:05.566Z,62.84
2018-07-30T04:20:34.477Z,62.74
2018-07-30T04:23:03.333Z,62.50
2018-07-30T04:25:32.439Z,62.68
2018-07-30T04:28:01.332Z,62.82
2018-07-30T04:30:30.238Z,62.55
2018-07-30T04:32:59.075Z,62.75
2018-07-30T04:35:28.111Z,62.40
2018-07-30T04:37:57.048Z,62.80
2018-07-30T04:40:26.007Z,63.44
2018-07-30T04:42:54.891Z,63.11
2018-07-30T04:45:23.795Z,63.34
2018-07-30T04:47:52.679Z,63.34
2018-07-30T04:50:21.564Z,63.05
2018-07-30T04:52:50.474Z,62.89
2018-07-30T04:55:19.441Z,63.13
2018-07-30T04:57:53.861Z,63.09
2018-07-30T05:00:28.288Z,63.52
2018-07-30T05:02:57.184Z,64.13
2018-07-30T05:05:26.132Z,63.88
2018-07-30T05:07:55.020Z,63.80
2018-07-30T05:10:23.912Z,63.57
2018-07-30T05:12:52.782Z,63.18
2018-07-30T05:15:21.747Z,62.98
2018-07-30T05:17:50.623Z,63.43
2018-07-30T05:20:19.518Z,63.60
2018-07-30T05:22:48.390Z,63.42
2018-07-30T05:25:17.282Z,63.47
2018-07-30T05:27:46.153Z,63.50
2018-07-30T05:30:15.053Z,63.17
2018-07-30T05:32:43.982Z,62.58
2018-07-30T05:35:12.852Z,62.75
2018-07-30T05:37:41.887Z,63.30
2018-07-30T05:40:10.822Z,62.53
2018-07-30T05:42:39.757Z,62.76
2018-07-30T05:45:08.664Z,63.40
2018-07-30T05:47:37.538Z,63.56
2018-07-30T05:50:06.569Z,63.46
2018-07-30T05:52:35.442Z,63.36
2018-07-30T05:55:04.372Z,62.68
2018-07-30T05:57:33.349Z,62.92
2018-07-30T06:00:02.263Z,63.29
2018-07-30T06:02:31.204Z,63.07
2018-07-30T06:05:00.272Z,62.85
2018-07-30T06:07:29.120Z,62.51
2018-07-30T06:09:58.009Z,62.59
2018-07-30T06:12:27.216Z,61.87
2018-07-30T06:14:56.156Z,61.88
2018-07-30T06:17:25.088Z,61.47
2018-07-30T06:19:53.962Z,61.73
2018-07-30T06:22:23.017Z,61.00
2018-07-30T06:24:52.000Z,60.46
2018-07-30T06:27:21.138Z,61.85
2018-07-30T06:29:50.100Z,61.18
2018-07-30T06:32:19.059Z,61.69
2018-07-30T06:34:48.104Z,61.23
2018-07-30T06:37:17.214Z,61.41
2018-07-30T06:39:46.301Z,61.32
2018-07-30T06:42:15.282Z,61.07
2018-07-30T06:44:44.272Z,60.50
2018-07-30T06:47:13.296Z,60.99
2018-07-30T06:49:42.543Z,61.12
2018-07-30T06:52:11.539Z,61.08
2018-07-30T06:54:40.456Z,61.55
2018-07-30T06:57:09.352Z,61.44
2018-07-30T06:59:38.314Z,60.85
2018-07-30T07:02:07.185Z,61.33
2018-07-30T07:04:36.050Z,60.65
2018-07-30T07:07:04.936Z,61.15
2018-07-30T07:09:33.909Z,60.46
2018-07-30T07:12:02.804Z,60.28
2018-07-30T07:14:31.685Z,60.50
2018-07-30T07:17:00.571Z,60.44
2018-07-30T07:19:34.958Z,59.37
2018-07-30T07:22:03.934Z,58.77
2018-07-30T07:24:32.902Z,57.91
2018-07-30T07:27:01.791Z,55.87
2018-07-30T07:29:30.867Z,53.91
2018-07-30T07:31:59.759Z,53.56
2018-07-30T07:34:28.658Z,53.38
2018-07-30T07:36:57.535Z,53.25
2018-07-30T07:39:26.523Z,53.09
2018-07-30T07:41:55.419Z,52.69
2018-07-30T07:44:24.473Z,51.77
2018-07-30T07:46:53.503Z,53.69
2018-07-30T07:49:22.508Z,53.66
2018-07-30T07:51:51.587Z,53.18
2018-07-30T07:54:20.596Z,53.46
2018-07-30T07:56:49.438Z,53.77
2018-07-30T07:59:18.348Z,55.23
2018-07-30T08:01:47.371Z,55.22
2018-07-30T08:04:16.367Z,54.74
2018-07-30T08:06:45.533Z,54.32
2018-07-30T08:09:14.444Z,53.44
2018-07-30T08:11:43.418Z,52.67
2018-07-30T08:14:12.332Z,52.10
2018-07-30T08:16:41.347Z,54.02
2018-07-30T08:19:10.266Z,53.58
2018-07-30T08:21:39.286Z,53.41
2018-07-30T08:24:08.254Z,53.40
2018-07-30T08:26:37.240Z,52.71
2018-07-30T08:29:06.314Z,53.54
2018-07-30T08:31:35.927Z,54.10
2018-07-30T08:34:04.921Z,54.80
2018-07-30T08:36:33.915Z,55.32
2018-07-30T08:39:02.974Z,54.14
2018-07-30T08:41:31.889Z,54.81
2018-07-30T08:44:00.757Z,53.91
2018-07-30T08:46:29.757Z,53.15
2018-07-30T08:48:58.732Z,53.78
2018-07-30T08:51:27.646Z,53.43
2018-07-30T08:53:56.578Z,53.05
2018-07-30T08:56:25.537Z,54.43
2018-07-30T08:58:54.488Z,54.15
2018-07-30T09:01:23.402Z,53.85
2018-07-30T09:03:52.628Z,53.36
2018-07-30T09:06:21.600Z,54.13
2018-07-30T09:08:50.586Z,54.47
2018-07-30T09:11:19.556Z,54.48
2018-07-30T09:13:48.465Z,53.93
2018-07-30T09:16:24.006Z,52.76
2018-07-30T09:18:52.987Z,53.15
2018-07-30T09:21:21.862Z,53.04
2018-07-30T09:23:50.800Z,53.97
2018-07-30T09:26:19.770Z,53.22
2018-07-30T09:28:48.742Z,53.79
2018-07-30T09:31:17.682Z,53.60
2018-07-30T09:33:46.598Z,53.78
2018-07-30T09:36:20.580Z,53.58
2018-07-30T09:38:49.501Z,53.19
2018-07-30T09:41:18.818Z,52.79
2018-07-30T09:43:48.158Z,52.80
2018-07-30T09:46:17.351Z,52.61
2018-07-30T09:48:46.388Z,52.43
2018-07-30T09:51:15.259Z,51.65
2018-07-30T09:53:44.150Z,51.56
2018-07-30T09:56:13.175Z,52.64
2018-07-30T09:58:42.120Z,51.96
2018-07-30T10:01:16.222Z,51.49
2018-07-30T10:03:45.132Z,52.09
2018-07-30T10:06:14.058Z,51.58
2018-07-30T10:08:42.944Z,51.78
2018-07-30T10:11:11.891Z,51.34
2018-07-30T10:13:40.935Z,52.06
2018-07-30T10:16:09.802Z,51.77
2018-07-30T10:18:38.877Z,51.42
2018-07-30T10:21:07.810Z,51.30
2018-07-30T10:23:36.988Z,50.65
2018-07-30T10:26:05.878Z,51.40
2018-07-30T10:28:34.857Z,50.95
2018-07-30T10:31:03.764Z,50.75
2018-07-30T10:33:32.686Z,50.85
2018-07-30T10:36:01.688Z,51.50
2018-07-30T10:38:30.629Z,51.53
2018-07-30T10:40:59.518Z,51.85
2018-07-30T10:43:28.619Z,50.68
2018-07-30T10:45:57.508Z,50.97
2018-07-30T10:48:26.435Z,50.97
2018-07-30T10:50:55.321Z,50.41
2018-07-30T10:53:24.313Z,51.14
2018-07-30T10:55:53.279Z,51.40
2018-07-30T10:58:22.208Z,51.80
2018-07-30T11:00:51.162Z,51.58
2018-07-30T11:03:20.155Z,51.00
2018-07-30T11:05:49.175Z,50.71
2018-07-30T11:08:18.100Z,50.17
2018-07-30T11:10:47.050Z,50.41
2018-07-30T11:13:15.877Z,50.39
2018-07-30T11:15:44.819Z,50.61
2018-07-30T11:18:13.808Z,50.40
2018-07-30T11:20:42.809Z,49.37
2018-07-30T11:23:11.790Z,50.11
2018-07-30T11:25:40.783Z,50.53
2018-07-30T11:28:09.773Z,50.42
2018-07-30T11:30:38.870Z,51.13
2018-07-30T11:33:07.805Z,50.87
2018-07-30T11:35:37.002Z,51.32
2018-07-30T11:38:05.942Z,51.58
2018-07-30T11:40:34.906Z,50.42
2018-07-30T11:43:03.891Z,50.82
2018-07-30T11:45:32.937Z,50.79
2018-07-30T11:48:01.931Z,50.77
2018-07-30T11:50:30.932Z,50.22
2018-07-30T11:52:59.921Z,49.87
2018-07-30T11:55:29.600Z,49.53
2018-07-30T11:57:58.783Z,50.10
2018-07-30T12:00:27.747Z,50.04
2018-07-30T12:02:56.707Z,49.32
2018-07-30T12:05:25.699Z,49.31
2018-07-30T12:07:54.689Z,48.95
2018-07-30T12:10:23.691Z,49.54
2018-07-30T12:12:52.664Z,48.78
2018-07-30T12:15:21.720Z,48.02
2018-07-30T12:17:50.614Z,48.08
2018-07-30T12:20:19.626Z,48.22
2018-07-30T12:22:48.543Z,48.58
2018-07-30T12:25:17.654Z,48.53
2018-07-30T12:27:46.615Z,48.15
2018-07-30T12:30:15.605Z,47.72
2018-07-30T12:32:44.467Z,48.15
2018-07-30T12:35:13.392Z,48.51
2018-07-30T12:37:42.304Z,47.90
2018-07-30T12:40:11.350Z,47.56
2018-07-30T12:42:40.297Z,47.32
2018-07-30T12:45:09.356Z,47.58
2018-07-30T12:47:38.216Z,46.86
2018-07-30T12:50:07.292Z,46.74
2018-07-30T12:52:36.174Z,46.74
2018-07-30T12:55:05.300Z,47.23
2018-07-30T12:57:34.182Z,47.41
2018-07-30T13:00:03.352Z,47.29
2018-07-30T13:02:32.197Z,47.71
2018-07-30T13:05:01.248Z,48.73
2018-07-30T13:07:30.162Z,47.66
2018-07-30T13:09:59.117Z,47.77
2018-07-30T13:12:28.008Z,47.04
2018-07-30T13:14:56.853Z,47.64
2018-07-30T13:17:25.797Z,46.25
2018-07-30T13:19:54.831Z,46.51
2018-07-30T13:22:23.723Z,45.89
2018-07-30T13:24:53.029Z,46.17
2018-07-30T13:27:21.912Z,46.34
2018-07-30T13:29:50.961Z,46.57
2018-07-30T13:32:19.949Z,47.34
2018-07-30T13:34:48.835Z,47.62
2018-07-30T13:37:17.931Z,47.10
2018-07-30T13:39:46.907Z,46.41
2018-07-30T13:42:15.827Z,46.31
2018-07-30T13:44:44.670Z,46.01
2018-07-30T13:47:13.709Z,45.78
2018-07-30T13:49:42.659Z,46.30
2018-07-30T13:52:11.594Z,46.13
2018-07-30T13:54:40.703Z,46.31
2018-07-30T13:57:09.632Z,46.39
2018-07-30T13:59:38.577Z,46.48
2018-07-30T14:02:07.526Z,47.24
2018-07-30T14:04:36.387Z,45.75
2018-07-30T14:07:05.371Z,46.34
2018-07-30T14:09:34.253Z,46.35
2018-07-30T14:12:03.245Z,46.59
2018-07-30T14:14:32.329Z,46.91
2018-07-30T14:17:01.183Z,46.74
2018-07-30T14:19:30.109Z,46.97
2018-07-30T14:21:59.133Z,46.80
2018-07-30T14:24:28.069Z,46.87
2018-07-30T14:26:56.992Z,47.39
2018-07-30T14:29:25.864Z,46.71
2018-07-30T14:31:54.856Z,47.60
2018-07-30T14:34:24.352Z,47.31
2018-07-30T14:36:53.374Z,47.13
2018-07-30T14:39:22.402Z,47.04
2018-07-30T14:41:51.412Z,47.56
2018-07-30T14:44:20.355Z,46.84
2018-07-30T14:46:49.372Z,46.62
2018-07-30T14:49:18.251Z,46.86
2018-07-30T14:51:47.136Z,46.75
2018-07-30T14:54:16.088Z,46.65
2018-07-30T14:56:44.975Z,47.01
2018-07-30T14:59:14.116Z,47.11
2018-07-30T15:01:42.966Z,47.13
2018-07-30T15:04:12.001Z,47.58
2018-07-30T15:06:40.976Z,47.23
2018-07-30T15:09:12.070Z,46.98
2018-07-30T15:11:40.979Z,47.16
2018-07-30T15:14:09.843Z,47.22
2018-07-30T15:16:38.815Z,47.36
2018-07-30T15:19:08.078Z,46.71
2018-07-30T15:21:37.300Z,46.48
2018-07-30T15:24:06.421Z,45.95
2018-07-30T15:26:35.339Z,46.65
2018-07-30T15:29:04.256Z,46.47
2018-07-30T15:31:33.143Z,47.00
2018-07-30T15:34:02.053Z,46.89
2018-07-30T15:36:30.972Z,47.41
2018-07-30T15:38:59.948Z,47.19
2018-07-30T15:41:28.868Z,47.19
2018-07-30T15:43:57.753Z,46.71
2018-07-30T15:46:26.619Z,46.96
2018-07-30T15:48:55.543Z,46.83
2018-07-30T15:51:24.517Z,47.05
2018-07-30T15:53:53.410Z,47.13
2018-07-30T15:56:22.292Z,47.43
2018-07-30T15:58:51.283Z,47.04
2018-07-30T16:01:20.286Z,47.23
2018-07-30T16:03:49.155Z,47.11
2018-07-30T16:06:18.063Z,46.87
2018-07-30T16:08:47.038Z,47.70
2018-07-30T16:11:15.919Z,47.30
2018-07-30T16:13:44.832Z,47.49
2018-07-30T16:16:13.923Z,47.78
2018-07-30T16:18:42.955Z,47.64
2018-07-30T16:21:11.830Z,47.54
2018-07-30T16:23:40.748Z,47.51
2018-07-30T16:26:09.780Z,46.20
2018-07-30T16:28:38.757Z,47.03
2018-07-30T16:31:07.648Z,45.92
2018-07-30T16:33:36.764Z,46.83
2018-07-30T16:36:05.804Z,47.71
2018-07-30T16:38:34.728Z,47.15
2018-07-30T16:41:03.733Z,46.42
2018-07-30T16:43:32.711Z,46.60
2018-07-30T16:46:01.608Z,46.67
2018-07-30T16:48:30.584Z,46.07
2018-07-30T16:50:59.484Z,45.92
2018-07-30T16:53:28.363Z,46.15
2018-07-30T16:55:57.344Z,46.52
2018-07-30T16:58:26.317Z,46.42
2018-07-30T17:00:55.305Z,45.98
2018-07-30T17:03:24.291Z,46.03
2018-07-30T17:05:53.503Z,46.70
2018-07-30T17:08:22.590Z,46.25
2018-07-30T17:10:51.446Z,45.87
2018-07-30T17:13:20.338Z,45.68
2018-07-30T17:15:49.600Z,45.78
2018-07-30T17:18:18.699Z,46.17
2018-07-30T17:20:48.289Z,46.55
2018-07-30T17:23:17.279Z,47.40
2018-07-30T17:25:46.257Z,46.42
2018-07-30T17:28:15.448Z,46.72
2018-07-30T17:30:44.449Z,46.47
2018-07-30T17:33:13.699Z,46.42
2018-07-30T17:35:43.041Z,46.85
2018-07-30T17:38:12.540Z,46.90
2018-07-30T17:40:41.458Z,46.92
2018-07-30T17:43:10.942Z,47.09
2018-07-30T17:45:39.947Z,46.71
2018-07-30T17:48:09.057Z,50.31
2018-07-30T17:50:38.138Z,53.67
2018-07-30T17:53:07.300Z,56.08
2018-07-30T17:55:36.525Z,58.87
2018-07-30T17:58:05.627Z,59.04
2018-07-30T18:00:34.713Z,58.92
2018-07-30T18:03:03.960Z,59.38
2018-07-30T18:05:33.015Z,59.78
2018-07-30T18:08:02.015Z,58.87
2018-07-30T18:10:30.963Z,58.69
2018-07-30T18:12:59.896Z,57.44
2018-07-30T18:15:28.992Z,56.90
2018-07-30T18:17:57.963Z,57.76
2018-07-30T18:20:26.960Z,57.90
2018-07-30T18:22:55.961Z,58.23
2018-07-30T18:25:26.129Z,58.06
2018-07-30T18:27:55.112Z,57.49
2018-07-30T18:30:24.126Z,58.55
2018-07-30T18:32:53.163Z,58.24
2018-07-30T18:35:22.140Z,59.73
2018-07-30T18:37:51.168Z,59.73
2018-07-30T18:40:20.249Z,59.65
2018-07-30T18:42:49.202Z,59.98
2018-07-30T18:45:18.123Z,59.40
2018-07-30T18:47:47.136Z,59.11
2018-07-30T18:50:16.001Z,59.45
2018-07-30T18:52:45.056Z,59.87
2018-07-30T18:55:14.126Z,59.43
2018-07-30T18:57:43.096Z,59.55
2018-07-30T19:00:12.216Z,59.53
2018-07-30T19:02:41.079Z,61.27
2018-07-30T19:05:10.220Z,62.54
2018-07-30T19:07:40.551Z,62.14
2018-07-30T19:10:09.598Z,61.81
2018-07-30T19:12:38.502Z,61.72
2018-07-30T19:15:08.051Z,61.98
2018-07-30T19:17:37.126Z,61.71
2018-07-30T19:20:06.092Z,61.42
2018-07-30T19:22:35.386Z,61.87
2018-07-30T19:25:04.890Z,61.50
2018-07-30T19:27:34.251Z,61.65
2018-07-30T19:30:03.598Z,61.08
2018-07-30T19:32:32.502Z,60.49
2018-07-30T19:35:01.369Z,60.96
2018-07-30T19:37:30.407Z,61.18
2018-07-30T19:40:00.104Z,60.11
2018-07-30T19:42:29.604Z,60.36
2018-07-30T19:45:01.256Z,60.34
2018-07-30T19:47:30.278Z,60.04
2018-07-30T19:49:59.640Z,60.15
2018-07-30T19:52:29.016Z,58.96
2018-07-30T19:54:57.924Z,58.66
2018-07-30T19:57:27.229Z,58.33
2018-07-30T19:59:56.131Z,59.20
2018-07-30T20:02:25.384Z,58.41
2018-07-30T20:04:54.302Z,58.18
2018-07-30T20:07:23.517Z,57.49
2018-07-30T20:09:52.511Z,57.52
2018-07-30T20:12:21.758Z,57.03
2018-07-30T20:14:51.106Z,58.29
2018-07-30T20:17:20.118Z,58.34
2018-07-30T20:19:49.461Z,58.33
2018-07-30T20:22:18.802Z,57.87
2018-07-30T20:24:48.085Z,58.20
2018-07-30T20:27:16.960Z,58.83
2018-07-30T20:29:46.298Z,58.52
2018-07-30T20:32:15.598Z,59.47
2018-07-30T20:34:44.512Z,59.85
2018-07-30T20:37:13.479Z,59.96
2018-07-30T20:39:42.489Z,59.73
2018-07-30T20:42:11.502Z,59.11
2018-07-30T20:44:40.369Z,58.26
2018-07-30T20:47:09.356Z,59.65
2018-07-30T20:49:38.254Z,59.27
2018-07-30T20:52:07.288Z,59.52
2018-07-30T20:54:36.167Z,58.49
2018-07-30T20:57:05.067Z,58.07
2018-07-30T20:59:33.946Z,58.34
2018-07-30T21:02:03.820Z,58.44
2018-07-30T21:04:32.773Z,59.47
2018-07-30T21:07:01.603Z,59.66
2018-07-30T21:09:30.587Z,59.43
2018-07-30T21:11:59.477Z,58.89
2018-07-30T21:14:28.358Z,58.68
2018-07-30T21:16:57.250Z,58.74
2018-07-30T21:19:26.182Z,58.89
2018-07-30T21:21:55.182Z,59.24
2018-07-30T21:24:24.570Z,59.35
2018-07-30T21:26:53.716Z,58.61
2018-07-30T21:29:22.738Z,59.42
2018-07-30T21:31:51.615Z,59.22
2018-07-30T21:34:20.578Z,58.96
2018-07-30T21:36:49.575Z,58.21
2018-07-30T21:39:18.425Z,58.48
2018-07-30T21:41:47.346Z,57.93
2018-07-30T21:44:16.238Z,57.94
2018-07-30T21:46:45.167Z,56.06
2018-07-30T21:49:14.081Z,54.47
2018-07-30T21:51:42.958Z,54.85
2018-07-30T21:54:11.939Z,53.24
2018-07-30T21:56:40.745Z,52.68
2018-07-30T21:59:09.651Z,51.75
2018-07-30T22:01:39.404Z,51.09
2018-07-30T22:04:08.327Z,50.77
2018-07-30T22:06:37.345Z,52.88
2018-07-30T22:09:08.283Z,51.72
2018-07-30T22:11:37.326Z,51.42
2018-07-30T22:14:06.629Z,52.15
2018-07-30T22:16:35.522Z,50.53
2018-07-30T22:19:04.385Z,50.98
2018-07-30T22:21:33.245Z,51.64
2018-07-30T22:24:03.157Z,52.01
2018-07-30T22:26:32.002Z,54.32
2018-07-30T22:29:00.953Z,57.36
2018-07-30T22:31:29.827Z,56.60
2018-07-30T22:33:58.751Z,56.65
2018-07-30T22:36:27.726Z,55.18
2018-07-30T22:38:56.626Z,56.36
2018-07-30T22:41:25.506Z,55.27
2018-07-30T22:43:54.394Z,56.63
2018-07-30T22:46:23.312Z,53.62
2018-07-30T22:48:52.178Z,53.69
2018-07-30T22:51:21.094Z,53.85
2018-07-30T22:53:50.092Z,51.33
2018-07-30T22:56:19.050Z,51.73
2018-07-30T22:58:47.938Z,53.00
2018-07-30T23:01:16.862Z,51.88
2018-07-30T23:03:45.820Z,50.40
2018-07-30T23:06:14.866Z,53.57
2018-07-30T23:08:43.764Z,51.91
2018-07-30T23:11:12.710Z,50.67
2018-07-30T23:13:41.610Z,52.07
2018-07-30T23:16:10.638Z,52.07
2018-07-30T23:18:39.434Z,51.29
2018-07-30T23:21:08.396Z,56.20
2018-07-30T23:23:37.368Z,60.96
2018-07-30T23:26:06.370Z,62.30
2018-07-30T23:28:35.250Z,62.88
2018-07-30T23:31:04.184Z,62.13
2018-07-30T23:33:33.259Z,61.99
2018-07-30T23:36:02.176Z,62.02
2018-07-30T23:38:31.113Z,62.21
2018-07-30T23:41:00.115Z,64.47
2018-07-30T23:43:29.004Z,66.44
2018-07-30T23:45:57.910Z,67.29
2018-07-30T23:48:26.894Z,67.84
2018-07-30T23:50:55.888Z,67.93
2018-07-30T23:53:24.742Z,66.65
2018-07-30T23:55:53.638Z,67.71
2018-07-30T23:58:22.578Z,67.29
